CDT,Max TemperatureF,Mean TemperatureF,Min TemperatureF,Max Dew PointF,MeanDew PointF,Min DewpointF,Max Humidity, Mean Humidity, Min Humidity, Max Sea Level PressureIn, Mean Sea Level PressureIn, Min Sea Level PressureIn, Max VisibilityMiles, Mean VisibilityMiles, Min VisibilityMiles, Max Wind SpeedMPH, Mean Wind SpeedMPH, Max Gust SpeedMPH,PrecipitationIn, CloudCover, Events, WindDirDegrees
2013-3-1,28,21,14,16,12,1,86,70,34,30.30,30.25,30.19,10,10,10,13,8,18,0.00,3,Snow,25
2013-3-2,28,10,-7,12,2,-11,92,64,29,30.28,30.21,30.14,10,10,5,10,2,,0.00,1,Snow,7
2013-3-3,32,12,-9,9,-4,-15,92,56,15,30.14,30.08,30.02,10,10,7,6,0,,0.00,0,,44
2013-3-4,33,20,6,16,7,0,79,52,25,30.08,30.05,30.01,10,10,10,9,4,,0.00,4,,118
2013-3-5,30,27,24,23,16,10,93,65,44,30.19,30.07,30.01,10,10,5,15,7,18,0.00,7,Snow,45
2013-3-6,33,20,8,21,16,7,93,72,41,30.30,30.26,30.19,10,10,5,10,5,17,0.00,4,Snow,330
2013-3-7,35,18,0,16,9,-2,100,71,38,30.37,30.33,30.30,10,10,10,5,0,,0.00,0,,153
2013-3-8,41,29,17,25,21,12,86,69,52,30.37,30.29,30.18,10,10,10,14,7,17,0.00,0,,166
2013-3-9,37,34,30,36,31,25,100,89,75,30.17,29.92,29.75,10,6,0,20,8,23,0.00,7,Rain-Snow,154
2013-3-10,35,32,28,36,32,27,100,91,75,29.92,29.84,29.75,10,7,0,26,7,34,0.00,8,Fog-Snow,17
2013-3-11,30,27,24,28,24,19,100,86,74,29.78,29.68,29.63,10,6,0,17,11,26,0.00,8,Snow,356
2013-3-12,26,22,19,21,18,16,93,81,69,30.02,29.81,29.70,10,6,1,12,5,18,0.00,8,Snow,307
2013-3-13,33,22,12,16,5,-6,86,53,21,30.23,30.18,30.03,10,10,10,13,5,17,0.00,1,Snow,312
2013-3-14,35,18,1,28,14,-2,93,77,37,30.22,30.11,29.98,10,10,5,10,2,,0.00,3,,219
2013-3-15,32,26,19,28,22,16,93,78,55,29.97,29.91,29.87,10,7,1,14,6,20,0.00,7,Snow,28
2013-3-16,26,19,12,16,10,5,93,70,51,30.13,29.99,29.89,10,8,2,13,7,18,0.00,7,Snow,343
2013-3-17,26,8,-9,12,-1,-15,92,57,24,30.21,30.13,29.97,10,10,10,12,5,18,0.00,2,,142
2013-3-18,30,24,17,27,20,12,93,88,74,29.96,29.66,29.49,10,5,0,14,10,23,0.00,7,Snow,170
2013-3-19,28,20,12,16,6,-2,93,62,31,29.94,29.74,29.53,10,5,0,16,10,26,0.00,4,Snow,284
2013-3-20,17,10,3,7,1,-2,85,62,49,30.02,29.98,29.94,10,10,7,13,7,21,0.00,4,,304
2013-3-21,30,18,6,10,8,3,92,68,40,30.01,29.99,29.95,10,9,3,9,2,,0.00,4,Snow,314
2013-3-22,33,16,-2,21,11,-8,92,74,55,30.05,30.02,29.99,10,10,7,9,2,,0.00,4,,24
2013-3-23,35,25,15,23,20,14,93,72,52,30.13,30.09,30.05,10,10,10,10,4,,0.00,6,,36
2013-3-24,33,28,21,25,21,18,86,73,60,30.08,30.00,29.91,10,10,10,16,8,25,0.00,7,,35
2013-3-25,35,25,15,27,20,16,100,76,52,30.15,30.03,29.95,10,10,10,16,6,23,0.00,5,,358
2013-3-26,39,31,23,25,21,16,93,67,39,30.24,30.19,30.15,10,10,10,8,2,,0.00,8,Snow,343
2013-3-27,44,34,21,23,18,10,86,58,25,30.29,30.26,30.24,10,10,7,12,1,17,0.00,5,,347
2013-3-28,46,29,12,21,14,10,100,60,23,30.31,30.28,30.24,10,10,10,8,1,,0.00,0,,355
2013-3-29,48,31,14,25,17,-42,100,58,4,30.29,30.23,30.13,10,10,10,9,1,,0.00,2,,213
2013-3-30,41,37,33,39,34,21,100,86,49,30.12,29.90,29.77,10,4,0,13,6,20,0.00,8,Fog-Rain,204
2013-3-31,37,32,24,36,25,9,100,74,35,29.93,29.75,29.66,10,7,0,20,5,31,0.00,6,Fog-Snow,311